createdAt,value
2023-06-07T00:00:16.441Z,4.00
2023-06-07T00:02:45.028Z,3.67
2023-06-07T00:05:14.433Z,3.90
2023-06-07T00:07:42.796Z,4.00
2023-06-07T00:10:11.153Z,3.67
2023-06-07T00:12:39.030Z,3.90
2023-06-07T00:15:08.459Z,3.80
2023-06-07T00:17:38.718Z,3.83
2023-06-07T00:20:09.934Z,4.25
2023-06-07T00:22:38.385Z,3.70
2023-06-07T00:25:06.480Z,3.95
2023-06-07T00:27:34.131Z,4.13
2023-06-07T00:30:04.325Z,3.88
2023-06-07T00:32:33.163Z,3.58
2023-06-07T00:35:02.161Z,3.78
2023-06-07T00:37:30.221Z,3.92
2023-06-07T00:39:57.817Z,4.40
2023-06-07T00:42:25.406Z,3.67
2023-06-07T00:44:52.985Z,4.05
2023-06-07T00:47:20.730Z,4.47
2023-06-07T00:49:49.340Z,4.40
2023-06-07T00:52:18.609Z,4.10
2023-06-07T00:54:46.297Z,4.30
2023-06-07T00:57:14.583Z,4.22
2023-06-07T00:59:42.191Z,4.57
2023-06-07T01:02:09.915Z,4.35
2023-06-07T01:04:41.592Z,4.38
2023-06-07T01:07:09.535Z,4.38
2023-06-07T01:09:42.695Z,4.82
2023-06-07T01:12:15.338Z,4.13
2023-06-07T01:14:44.619Z,4.30
2023-06-07T01:17:13.806Z,4.60
2023-06-07T01:19:43.167Z,4.20
2023-06-07T01:22:11.694Z,3.88
2023-06-07T01:24:44.077Z,4.05
2023-06-07T01:27:12.149Z,3.97
2023-06-07T01:29:41.070Z,4.50
2023-06-07T01:32:10.787Z,4.57
2023-06-07T01:34:38.740Z,4.55
2023-06-07T01:37:06.664Z,4.65
2023-06-07T01:39:34.625Z,4.22
2023-06-07T01:42:03.904Z,3.92
2023-06-07T01:44:32.036Z,4.50
2023-06-07T01:46:59.685Z,4.13
2023-06-07T01:49:27.296Z,4.50
2023-06-07T01:51:54.893Z,4.20
2023-06-07T01:54:22.628Z,4.00
2023-06-07T01:56:55.584Z,4.30
2023-06-07T01:59:29.570Z,4.07
2023-06-07T02:02:02.091Z,4.65
2023-06-07T02:04:32.494Z,4.40
2023-06-07T02:07:02.409Z,4.13
2023-06-07T02:09:31.325Z,4.13
2023-06-07T02:11:59.408Z,4.22
2023-06-07T02:14:28.687Z,4.18
2023-06-07T02:16:56.373Z,4.18
2023-06-07T02:19:25.478Z,4.32
2023-06-07T02:21:53.059Z,4.00
2023-06-07T02:24:20.698Z,4.72
2023-06-07T02:26:48.298Z,4.07
2023-06-07T02:29:16.629Z,4.20
2023-06-07T02:31:46.415Z,4.50
2023-06-07T02:34:14.930Z,4.43
2023-06-07T02:36:43.192Z,3.80
2023-06-07T02:39:11.436Z,4.70
2023-06-07T02:41:39.153Z,4.25
2023-06-07T02:44:06.754Z,4.53
2023-06-07T02:46:34.408Z,4.57
2023-06-07T02:49:03.656Z,4.40
2023-06-07T02:51:32.028Z,4.65
2023-06-07T02:54:01.486Z,4.53
2023-06-07T02:56:31.042Z,4.15
2023-06-07T02:58:58.630Z,4.38
2023-06-07T03:01:34.245Z,4.47
2023-06-07T03:04:03.896Z,4.35
2023-06-07T03:06:33.496Z,4.18
2023-06-07T03:09:10.519Z,4.38
2023-06-07T03:11:39.762Z,4.90
2023-06-07T03:14:07.451Z,4.22
2023-06-07T03:16:41.203Z,4.40
2023-06-07T03:19:10.161Z,4.72
2023-06-07T03:21:39.307Z,4.45
2023-06-07T03:24:08.694Z,4.88
2023-06-07T03:26:36.532Z,4.22
2023-06-07T03:29:04.784Z,4.40
2023-06-07T03:31:36.492Z,4.38
2023-06-07T03:34:07.983Z,4.65
2023-06-07T03:36:37.761Z,4.90
2023-06-07T03:39:05.519Z,4.63
2023-06-07T03:41:33.345Z,4.75
2023-06-07T03:44:05.946Z,4.93
2023-06-07T03:46:34.279Z,4.15
2023-06-07T03:49:01.990Z,4.07
2023-06-07T03:51:29.814Z,4.20
2023-06-07T03:54:01.966Z,3.92
2023-06-07T03:56:30.611Z,4.50
2023-06-07T03:58:58.212Z,4.28
2023-06-07T04:01:26.835Z,4.28
2023-06-07T04:03:57.237Z,4.53
2023-06-07T04:06:26.108Z,4.03
2023-06-07T04:08:54.752Z,4.72
2023-06-07T04:11:23.699Z,3.95
2023-06-07T04:13:51.498Z,4.28
2023-06-07T04:16:19.658Z,4.20
2023-06-07T04:18:47.762Z,4.60
2023-06-07T04:21:16.161Z,5.03
2023-06-07T04:23:46.120Z,5.03
2023-06-07T04:26:20.122Z,5.03
2023-06-07T04:28:50.674Z,4.88
2023-06-07T04:31:23.806Z,5.05
2023-06-07T04:33:52.418Z,5.47
2023-06-07T04:36:20.768Z,5.28
2023-06-07T04:38:57.922Z,5.15
2023-06-07T04:41:31.275Z,5.63
2023-06-07T04:44:01.694Z,5.03
2023-06-07T04:46:33.471Z,5.28
2023-06-07T04:49:02.972Z,5.65
2023-06-07T04:51:31.230Z,5.55
2023-06-07T04:54:05.343Z,4.82
2023-06-07T04:56:38.870Z,5.38
2023-06-07T04:59:09.672Z,5.45
2023-06-07T05:01:39.074Z,5.25
2023-06-07T05:04:08.003Z,5.55
2023-06-07T05:06:42.247Z,5.75
2023-06-07T05:09:10.206Z,4.75
2023-06-07T05:11:38.511Z,4.65
2023-06-07T05:14:08.179Z,4.80
2023-06-07T05:16:36.534Z,5.38
2023-06-07T05:19:04.767Z,5.68
2023-06-07T05:21:36.221Z,5.03
2023-06-07T05:24:04.433Z,4.72
2023-06-07T05:26:32.631Z,4.70
2023-06-07T05:29:00.197Z,4.63
2023-06-07T05:31:30.292Z,4.80
2023-06-07T05:33:58.161Z,4.65
2023-06-07T05:36:25.883Z,4.65
2023-06-07T05:38:53.524Z,4.45
2023-06-07T05:41:21.660Z,4.75
2023-06-07T05:43:49.317Z,4.30
2023-06-07T05:46:17.695Z,4.60
2023-06-07T05:48:47.795Z,4.90
2023-06-07T05:51:19.959Z,4.82
2023-06-07T05:53:48.128Z,5.07
2023-06-07T05:56:17.770Z,4.57
2023-06-07T05:58:45.801Z,4.55
2023-06-07T06:01:14.510Z,5.22
2023-06-07T06:03:42.131Z,5.10
2023-06-07T06:06:18.706Z,5.50
2023-06-07T06:08:47.141Z,4.78
2023-06-07T06:11:15.288Z,5.05
2023-06-07T06:13:43.136Z,4.63
2023-06-07T06:16:12.599Z,4.75
2023-06-07T06:18:41.520Z,4.72
2023-06-07T06:21:09.460Z,4.63
2023-06-07T06:23:38.881Z,4.28
2023-06-07T06:26:07.091Z,4.70
2023-06-07T06:28:34.672Z,4.80
2023-06-07T06:31:04.327Z,4.40
2023-06-07T06:33:32.180Z,4.55
2023-06-07T06:36:00.513Z,4.60
2023-06-07T06:38:28.266Z,4.57
2023-06-07T06:40:57.227Z,4.30
2023-06-07T06:43:24.924Z,4.22
2023-06-07T06:45:58.047Z,4.07
2023-06-07T06:48:25.940Z,3.97
2023-06-07T06:50:54.287Z,4.43
2023-06-07T06:53:21.912Z,4.20
2023-06-07T06:55:49.577Z,4.40
2023-06-07T06:58:18.490Z,4.20
2023-06-07T07:00:46.136Z,4.60
2023-06-07T07:03:13.775Z,4.28
2023-06-07T07:05:41.427Z,4.43
2023-06-07T07:08:09.218Z,4.70
2023-06-07T07:10:36.894Z,4.43
2023-06-07T07:13:04.697Z,4.45
2023-06-07T07:15:33.694Z,3.95
2023-06-07T07:18:01.593Z,4.78
2023-06-07T07:20:29.280Z,4.90
2023-06-07T07:22:59.350Z,5.03
2023-06-07T07:25:27.005Z,4.70
2023-06-07T07:27:54.633Z,4.82
2023-06-07T07:30:22.493Z,4.70
2023-06-07T07:32:51.628Z,4.20
2023-06-07T07:35:19.938Z,4.85
2023-06-07T07:37:48.076Z,4.53
2023-06-07T07:40:15.891Z,5.00
2023-06-07T07:42:43.498Z,4.57
2023-06-07T07:45:11.340Z,4.78
2023-06-07T07:47:38.995Z,4.57
2023-06-07T07:50:08.742Z,4.75
2023-06-07T07:52:37.094Z,4.78
2023-06-07T07:55:05.823Z,4.72
2023-06-07T07:57:33.681Z,4.80
2023-06-07T08:00:01.300Z,4.88
2023-06-07T08:02:30.569Z,5.00
2023-06-07T08:04:58.269Z,4.07
2023-06-07T08:07:27.305Z,4.50
2023-06-07T08:09:54.917Z,4.75
2023-06-07T08:12:22.518Z,5.05
2023-06-07T08:14:50.122Z,4.97
2023-06-07T08:17:17.906Z,4.70
2023-06-07T08:19:45.683Z,4.53
2023-06-07T08:22:13.278Z,4.22
2023-06-07T08:24:42.299Z,4.30
2023-06-07T08:27:10.070Z,4.40
2023-06-07T08:29:37.780Z,4.07
2023-06-07T08:32:05.797Z,4.43
2023-06-07T08:34:34.590Z,4.38
2023-06-07T08:37:02.741Z,4.38
2023-06-07T08:39:30.411Z,4.03
2023-06-07T08:41:59.331Z,4.30
2023-06-07T08:44:26.972Z,4.38
2023-06-07T08:46:54.631Z,4.70
2023-06-07T08:49:22.696Z,4.53
2023-06-07T08:51:57.342Z,4.10
2023-06-07T08:54:31.335Z,4.43
2023-06-07T08:57:00.637Z,4.05
2023-06-07T08:59:28.919Z,4.38
2023-06-07T09:01:56.920Z,3.97
2023-06-07T09:04:24.660Z,4.10
2023-06-07T09:06:52.278Z,4.38
2023-06-07T09:09:20.352Z,4.50
2023-06-07T09:11:51.951Z,4.50
2023-06-07T09:14:20.939Z,4.32
2023-06-07T09:16:56.404Z,4.53
2023-06-07T09:19:32.266Z,4.07
2023-06-07T09:21:59.997Z,4.43
2023-06-07T09:24:28.348Z,4.60
2023-06-07T09:26:56.347Z,4.05
2023-06-07T09:29:27.070Z,4.28
2023-06-07T09:31:54.844Z,3.70
2023-06-07T09:34:23.203Z,4.00
2023-06-07T09:36:51.636Z,4.22
2023-06-07T09:39:22.020Z,4.18
2023-06-07T09:41:49.752Z,4.00
2023-06-07T09:44:22.379Z,4.50
2023-06-07T09:46:51.494Z,4.53
2023-06-07T09:49:28.928Z,4.65
2023-06-07T09:51:57.016Z,4.30
2023-06-07T09:54:35.607Z,4.53
2023-06-07T09:57:04.251Z,4.82
2023-06-07T09:59:31.868Z,4.93
2023-06-07T10:02:00.836Z,5.07
2023-06-07T10:04:28.504Z,5.40
2023-06-07T10:06:59.071Z,4.85
2023-06-07T10:09:26.998Z,4.43
2023-06-07T10:11:55.410Z,5.55
2023-06-07T10:14:25.939Z,4.63
2023-06-07T10:16:54.236Z,5.00
2023-06-07T10:19:27.526Z,6.05
2023-06-07T10:21:55.894Z,4.70
2023-06-07T10:24:26.561Z,5.00
2023-06-07T10:26:55.861Z,5.07
2023-06-07T10:29:27.431Z,5.40
2023-06-07T10:32:00.329Z,5.32
2023-06-07T10:34:30.318Z,5.60
2023-06-07T10:37:00.587Z,6.32
2023-06-07T10:39:29.166Z,5.70
2023-06-07T10:41:58.780Z,5.60
2023-06-07T10:44:26.593Z,5.85
2023-06-07T10:47:10.164Z,5.20
2023-06-07T10:49:39.392Z,5.78
2023-06-07T10:52:07.473Z,6.32
2023-06-07T10:54:36.284Z,5.78
2023-06-07T10:57:04.813Z,5.70
2023-06-07T10:59:32.484Z,5.93
2023-06-07T11:02:09.843Z,5.40
2023-06-07T11:04:52.683Z,6.25
2023-06-07T11:07:20.958Z,5.95
2023-06-07T11:09:49.715Z,6.10
2023-06-07T11:12:27.138Z,5.50
2023-06-07T11:15:09.638Z,5.78
2023-06-07T11:17:48.062Z,5.95
2023-06-07T11:20:37.766Z,5.57
2023-06-07T11:23:20.539Z,5.30
2023-06-07T11:25:48.323Z,5.40
2023-06-07T11:28:16.573Z,5.03
2023-06-07T11:30:44.916Z,5.00
2023-06-07T11:33:15.761Z,4.68
2023-06-07T11:35:44.834Z,5.00
2023-06-07T11:38:12.478Z,4.95
2023-06-07T11:40:40.264Z,3.85
2023-06-07T11:43:10.700Z,4.03
2023-06-07T11:45:39.581Z,4.47
2023-06-07T11:48:07.840Z,4.68
2023-06-07T11:50:36.187Z,4.18
2023-06-07T11:53:05.162Z,4.50
2023-06-07T11:55:32.882Z,4.60
2023-06-07T11:58:19.712Z,4.47
2023-06-07T12:00:47.725Z,5.57
2023-06-07T12:03:17.459Z,4.97
2023-06-07T12:05:45.977Z,4.60
2023-06-07T12:08:17.613Z,4.90
2023-06-07T12:10:53.949Z,4.88
2023-06-07T12:13:22.141Z,5.05
2023-06-07T12:15:51.468Z,4.07
2023-06-07T12:18:20.367Z,4.40
2023-06-07T12:20:48.730Z,4.30
2023-06-07T12:23:22.265Z,4.30
2023-06-07T12:25:49.911Z,4.40
2023-06-07T12:28:17.609Z,4.72
2023-06-07T12:30:45.733Z,3.42
2023-06-07T12:33:15.036Z,4.50
2023-06-07T12:35:49.773Z,3.85
2023-06-07T12:38:21.225Z,3.50
2023-06-07T12:40:48.988Z,3.25
2023-06-07T12:43:16.606Z,3.90
2023-06-07T12:45:44.254Z,3.40
2023-06-07T12:48:12.462Z,3.83
2023-06-07T12:50:40.610Z,3.65
2023-06-07T12:53:08.296Z,3.35
2023-06-07T12:55:37.152Z,3.70
2023-06-07T12:58:04.818Z,3.17
2023-06-07T13:00:32.452Z,3.83
2023-06-07T13:03:00.433Z,3.17
2023-06-07T13:05:29.571Z,3.28
2023-06-07T13:07:57.226Z,3.42
2023-06-07T13:10:26.038Z,3.00
2023-06-07T13:12:54.977Z,3.00
2023-06-07T13:15:23.476Z,3.20
2023-06-07T13:17:51.178Z,2.88
2023-06-07T13:20:19.027Z,2.90
2023-06-07T13:22:46.715Z,3.38
2023-06-07T13:25:14.302Z,2.83
2023-06-07T13:27:43.518Z,2.97
2023-06-07T13:30:12.873Z,3.10
2023-06-07T13:32:40.494Z,2.97
2023-06-07T13:35:08.457Z,2.95
2023-06-07T13:37:36.250Z,2.97
2023-06-07T13:40:04.259Z,2.78
2023-06-07T13:42:32.154Z,3.13
2023-06-07T13:44:59.704Z,3.00
2023-06-07T13:47:31.876Z,2.67
2023-06-07T13:49:59.832Z,3.30
2023-06-07T13:52:27.483Z,2.88
2023-06-07T13:54:57.860Z,2.70
2023-06-07T13:57:26.470Z,2.90
2023-06-07T13:59:54.700Z,2.55
2023-06-07T14:02:22.549Z,2.65
2023-06-07T14:04:51.763Z,2.80
2023-06-07T14:07:19.411Z,2.60
2023-06-07T14:09:47.539Z,2.90
2023-06-07T14:12:15.193Z,2.70
2023-06-07T14:14:42.805Z,3.00
2023-06-07T14:17:11.555Z,2.42
2023-06-07T14:19:41.744Z,2.88
2023-06-07T14:22:10.723Z,2.88
2023-06-07T14:24:38.400Z,2.55
2023-06-07T14:27:07.994Z,2.80
2023-06-07T14:29:35.837Z,2.90
2023-06-07T14:32:03.659Z,2.90
2023-06-07T14:34:31.463Z,2.80
2023-06-07T14:36:59.127Z,2.90
2023-06-07T14:39:28.073Z,3.15
2023-06-07T14:41:55.713Z,2.65
2023-06-07T14:44:24.881Z,2.70
2023-06-07T14:46:52.625Z,2.63
2023-06-07T14:49:20.244Z,2.90
2023-06-07T14:51:48.270Z,2.88
2023-06-07T14:54:15.872Z,3.00
2023-06-07T14:56:44.749Z,2.83
2023-06-07T14:59:14.278Z,2.90
2023-06-07T15:01:42.392Z,2.88
2023-06-07T15:04:11.576Z,3.05
2023-06-07T15:06:39.326Z,3.20
2023-06-07T15:09:06.988Z,3.25
2023-06-07T15:11:34.604Z,2.72
2023-06-07T15:14:03.531Z,3.28
2023-06-07T15:16:31.471Z,3.05
2023-06-07T15:18:59.095Z,3.25
2023-06-07T15:21:28.072Z,2.80
2023-06-07T15:23:56.076Z,3.10
2023-06-07T15:26:23.772Z,3.03
2023-06-07T15:28:52.233Z,3.22
2023-06-07T15:31:21.693Z,3.38
2023-06-07T15:33:49.369Z,3.20
2023-06-07T15:36:17.017Z,2.90
2023-06-07T15:38:46.232Z,2.75
2023-06-07T15:41:14.918Z,3.20
2023-06-07T15:43:43.364Z,2.83
2023-06-07T15:46:11.138Z,2.80
2023-06-07T15:48:40.604Z,3.17
2023-06-07T15:51:08.297Z,2.85
2023-06-07T15:53:36.092Z,2.92
2023-06-07T15:56:03.749Z,2.60
2023-06-07T15:58:31.386Z,3.10
2023-06-07T16:00:59.480Z,2.85
2023-06-07T16:03:32.886Z,2.40
2023-06-07T16:06:08.010Z,2.72
2023-06-07T16:08:35.613Z,2.47
2023-06-07T16:11:03.342Z,2.70
2023-06-07T16:13:30.929Z,2.53
2023-06-07T16:15:58.540Z,2.88
2023-06-07T16:18:26.231Z,3.30
2023-06-07T16:20:53.846Z,2.78
2023-06-07T16:23:22.871Z,2.60
2023-06-07T16:25:50.728Z,2.80
2023-06-07T16:28:20.434Z,2.90
2023-06-07T16:30:48.101Z,3.60
2023-06-07T16:33:15.780Z,3.25
2023-06-07T16:35:45.304Z,2.80
2023-06-07T16:38:12.910Z,2.85
2023-06-07T16:40:41.890Z,3.05
2023-06-07T16:43:09.574Z,2.50
2023-06-07T16:45:37.252Z,2.85
2023-06-07T16:48:05.195Z,2.58
2023-06-07T16:50:33.017Z,3.20
2023-06-07T16:53:00.851Z,3.22
2023-06-07T16:55:28.437Z,3.55
2023-06-07T16:57:57.315Z,3.55
2023-06-07T17:00:24.964Z,3.08
2023-06-07T17:02:52.582Z,3.00
2023-06-07T17:05:20.962Z,2.90
2023-06-07T17:07:48.575Z,3.00
2023-06-07T17:10:16.243Z,2.95
2023-06-07T17:12:43.902Z,3.08
2023-06-07T17:15:12.888Z,2.92
2023-06-07T17:17:40.746Z,3.15
2023-06-07T17:20:09.104Z,3.03
2023-06-07T17:22:36.889Z,2.95
2023-06-07T17:25:04.887Z,3.58
2023-06-07T17:27:32.465Z,3.63
2023-06-07T17:30:00.617Z,2.90
2023-06-07T17:32:29.529Z,3.30
2023-06-07T17:34:57.185Z,3.10
2023-06-07T17:37:24.797Z,3.22
2023-06-07T17:39:52.536Z,3.00
2023-06-07T17:42:22.435Z,2.85
2023-06-07T17:44:50.440Z,2.60
2023-06-07T17:47:18.033Z,3.38
2023-06-07T17:49:46.957Z,3.10
2023-06-07T17:52:22.301Z,2.97
2023-06-07T17:54:51.349Z,3.42
2023-06-07T17:57:18.961Z,3.05
2023-06-07T17:59:46.535Z,3.28
2023-06-07T18:02:14.107Z,3.13
2023-06-07T18:04:41.730Z,3.35
2023-06-07T18:07:10.844Z,2.63
2023-06-07T18:09:39.622Z,2.83
2023-06-07T18:12:07.913Z,3.03
2023-06-07T18:14:35.555Z,3.30
2023-06-07T18:17:03.477Z,4.18
2023-06-07T18:19:31.070Z,3.00
2023-06-07T18:22:00.880Z,3.35
2023-06-07T18:24:29.821Z,3.03
2023-06-07T18:26:57.472Z,3.35
2023-06-07T18:29:25.450Z,3.00
2023-06-07T18:31:53.256Z,3.33
2023-06-07T18:34:21.261Z,3.15
2023-06-07T18:36:48.842Z,3.35
2023-06-07T18:39:17.163Z,3.75
2023-06-07T18:41:46.197Z,3.40
2023-06-07T18:44:13.916Z,3.30
2023-06-07T18:46:44.004Z,3.55
2023-06-07T18:49:12.230Z,3.88
2023-06-07T18:51:39.938Z,3.22
2023-06-07T18:54:07.751Z,3.40
2023-06-07T18:56:37.320Z,3.38
2023-06-07T18:59:07.070Z,3.17
2023-06-07T19:01:50.195Z,3.75
2023-06-07T19:04:18.548Z,3.38
2023-06-07T19:06:48.637Z,3.70
2023-06-07T19:09:18.574Z,3.75
2023-06-07T19:11:46.612Z,3.47
2023-06-07T19:14:16.886Z,3.85
2023-06-07T19:16:44.534Z,3.53
2023-06-07T19:19:12.166Z,3.50
2023-06-07T19:21:39.971Z,3.65
2023-06-07T19:24:07.871Z,3.05
2023-06-07T19:26:35.712Z,3.47
2023-06-07T19:29:04.128Z,3.33
2023-06-07T19:31:34.322Z,3.97
2023-06-07T19:34:02.091Z,3.60
2023-06-07T19:36:29.724Z,3.70
2023-06-07T19:38:57.332Z,3.38
2023-06-07T19:41:25.106Z,3.42
2023-06-07T19:43:52.665Z,3.60
2023-06-07T19:46:20.488Z,3.40
2023-06-07T19:48:49.534Z,4.32
2023-06-07T19:51:18.069Z,3.45
2023-06-07T19:53:45.680Z,2.90
2023-06-07T19:56:14.106Z,3.35
2023-06-07T19:58:41.701Z,3.67
2023-06-07T20:01:09.350Z,3.50
2023-06-07T20:03:37.178Z,3.50
2023-06-07T20:06:06.352Z,3.55
2023-06-07T20:08:34.673Z,3.35
2023-06-07T20:11:02.276Z,3.42
2023-06-07T20:13:30.024Z,3.30
2023-06-07T20:15:57.610Z,3.05
2023-06-07T20:18:25.871Z,3.80
2023-06-07T20:20:53.488Z,3.47
2023-06-07T20:23:22.381Z,3.40
2023-06-07T20:25:49.964Z,3.28
2023-06-07T20:28:17.606Z,3.40
2023-06-07T20:30:45.193Z,3.28
2023-06-07T20:33:12.883Z,3.20
2023-06-07T20:35:40.487Z,3.33
2023-06-07T20:38:08.085Z,3.20
2023-06-07T20:40:36.943Z,3.50
2023-06-07T20:43:04.579Z,3.45
2023-06-07T20:45:32.273Z,3.13
2023-06-07T20:48:00.055Z,3.35
2023-06-07T20:50:27.773Z,3.22
2023-06-07T20:52:55.520Z,3.05
2023-06-07T20:55:23.341Z,3.20
2023-06-07T20:57:52.265Z,3.30
2023-06-07T21:00:20.184Z,3.40
2023-06-07T21:02:47.899Z,3.30
2023-06-07T21:05:15.573Z,3.17
2023-06-07T21:07:43.241Z,3.35
2023-06-07T21:10:11.181Z,3.20
2023-06-07T21:12:38.864Z,3.08
2023-06-07T21:15:08.442Z,3.22
2023-06-07T21:17:36.588Z,3.17
2023-06-07T21:20:04.827Z,3.50
2023-06-07T21:22:51.119Z,3.20
2023-06-07T21:25:18.786Z,2.83
2023-06-07T21:27:46.368Z,3.30
2023-06-07T21:30:15.508Z,3.45
2023-06-07T21:32:43.146Z,3.45
2023-06-07T21:35:10.911Z,3.40
2023-06-07T21:37:38.566Z,3.17
2023-06-07T21:40:06.942Z,3.10
2023-06-07T21:42:34.764Z,3.40
2023-06-07T21:45:02.545Z,3.10
2023-06-07T21:47:32.323Z,3.42
2023-06-07T21:50:00.724Z,3.20
2023-06-07T21:52:28.594Z,3.35
2023-06-07T21:54:57.908Z,3.60
2023-06-07T21:57:26.355Z,3.30
2023-06-07T21:59:54.006Z,3.05
2023-06-07T22:02:21.640Z,3.42
2023-06-07T22:04:51.046Z,3.13
2023-06-07T22:07:18.828Z,3.22
2023-06-07T22:09:48.068Z,3.40
2023-06-07T22:12:16.271Z,3.08
2023-06-07T22:14:44.254Z,3.20
2023-06-07T22:17:30.904Z,3.78
2023-06-07T22:20:03.903Z,3.35
2023-06-07T22:22:31.787Z,3.33
2023-06-07T22:25:00.313Z,3.00
2023-06-07T22:27:29.602Z,3.47
2023-06-07T22:29:58.329Z,3.42
2023-06-07T22:32:29.527Z,3.25
2023-06-07T22:35:04.958Z,3.35
2023-06-07T22:37:35.262Z,3.35
2023-06-07T22:40:05.540Z,3.15
2023-06-07T22:42:33.719Z,3.58
2023-06-07T22:45:01.721Z,3.25
2023-06-07T22:47:31.064Z,3.50
2023-06-07T22:49:59.710Z,3.47
2023-06-07T22:52:33.797Z,3.50
2023-06-07T22:55:03.376Z,3.63
2023-06-07T22:57:32.378Z,3.90
2023-06-07T23:00:00.049Z,3.92
2023-06-07T23:02:29.695Z,4.00
2023-06-07T23:04:57.604Z,4.00
2023-06-07T23:07:44.231Z,3.60
2023-06-07T23:10:13.205Z,3.92
2023-06-07T23:12:43.713Z,3.67
2023-06-07T23:15:12.414Z,4.03
2023-06-07T23:17:40.286Z,3.95
2023-06-07T23:20:11.917Z,4.15
2023-06-07T23:22:42.063Z,3.63
2023-06-07T23:25:11.972Z,3.60
2023-06-07T23:27:42.301Z,3.92
2023-06-07T23:30:10.213Z,4.05
2023-06-07T23:32:38.275Z,4.15
2023-06-07T23:35:06.433Z,3.85
2023-06-07T23:37:34.287Z,4.28
2023-06-07T23:40:03.594Z,3.90
2023-06-07T23:42:31.331Z,3.78
2023-06-07T23:45:00.321Z,3.97
2023-06-07T23:47:27.985Z,3.58
2023-06-07T23:49:55.766Z,3.88
2023-06-07T23:52:23.732Z,4.15
2023-06-07T23:54:51.431Z,4.20
2023-06-07T23:57:19.179Z,4.25
2023-06-07T23:59:46.775Z,3.78
